Great BritainFixed distance
Ultra-Trail Snowdonia - 50km
17 May2025
Distance
55km
Finishers
965760 men205 women
Winning time
5:33:22h
Median pace
4.81km/h
Pace distribution
965 finishers · 3.86–9.90 km/h · mean 5.00
Every finisher ran the same 55 km course, so these paces are directly comparable.
Histogram of finisher pace. 965 finishers ranged from 3.86 to 9.90 kilometres per hour, with a mean of 5.00 and a median of 4.81. The busiest band is 4.5 to 5.0 kilometres per hour, with 285 finishers.
Results
Ranks 651–700 of 965
| Rank | Runner | Time | Pace | Cat. | Placing |
|---|---|---|---|---|---|
| 651 | 12:08:42h | 4.53 | M40 | 534th M · 106th M40 | |
| 652 | Mikkeller RC Aarhus | 12:09:35h | 4.52 | M45 | 535th M · 78th M45 |
| 652 | 12:09:35h | 4.52 | M23 | 535th M · 176th M23 | |
| 654 | 12:09:43h | 4.52 | M40 | 537th M · 107th M40 | |
| 655 | 12:10:01h | 4.52 | W40 | 118th F · 23rd W40 | |
| 656 | 12:10:11h | 4.52 | W23 | 119th F · 51st W23 | |
| 657 | 12:10:27h | 4.52 | W40 | 120th F · 24th W40 | |
| 658 | Team Paris Marathon / C&C | 12:10:28h | 4.52 | W65 | 121st F · 1st W65 |
| 659 | 12:10:49h | 4.51 | M40 | 538th M · 108th M40 | |
| 660 | 12:10:59h | 4.51 | M55 | 539th M · 22nd M55 | |
| 661 | 12:11:34h | 4.51 | M35 | 540th M · 98th M35 | |
| 662 | 12:12:42h | 4.50 | W35 | 122nd F · 21st W35 | |
| 663 | 12:13:06h | 4.50 | MU23 | 541st M · 6th MU23 | |
| 664 | 12:13:07h | 4.50 | M60 | 542nd M · 9th M60 | |
| 665 | 12:13:13h | 4.50 | M45 | 543rd M · 79th M45 | |
| 666 | 12:13:14h | 4.50 | M55 | 544th M · 23rd M55 | |
| 667 | 12:13:15h | 4.50 | M45 | 545th M · 80th M45 | |
| 668 | Hyde Park Harriers | 12:13:16h | 4.50 | M23 | 546th M · 177th M23 |
| 669 | 12:13:48h | 4.50 | M23 | 547th M · 178th M23 | |
| 670 | 12:14:55h | 4.49 | M45 | 548th M · 81st M45 | |
| 671 | 12:15:27h | 4.49 | W40 | 123rd F · 25th W40 | |
| 672 | Cobra Running & Triath... | 12:15:36h | 4.49 | M40 | 549th M · 109th M40 |
| 673 | TKO Sport | 12:15:57h | 4.48 | M50 | 550th M · 44th M50 |
| 674 | 12:16:40h | 4.48 | M23 | 551st M · 179th M23 | |
| 675 | 12:17:16h | 4.48 | M50 | 552nd M · 45th M50 | |
| 676 | 12:17:34h | 4.47 | M50 | 553rd M · 46th M50 | |
| 677 | 12:17:50h | 4.47 | M35 | 554th M · 99th M35 | |
| 678 | SVTR | 12:17:57h | 4.47 | M45 | 555th M · 82nd M45 |
| 679 | NRG Endurance | 12:17:59h | 4.47 | W40 | 124th F · 26th W40 |
| 680 | 12:18:09h | 4.47 | M40 | 556th M · 110th M40 | |
| 681 | 12:18:11h | 4.47 | M40 | 557th M · 111th M40 | |
| 682 | 12:18:20h | 4.47 | M40 | 558th M · 112th M40 | |
| 683 | Westbury Running Group | 12:18:43h | 4.47 | M55 | 559th M · 24th M55 |
| 684 | 12:18:52h | 4.47 | M23 | 560th M · 180th M23 | |
| 685 | 12:18:53h | 4.47 | W55 | 125th F · 5th W55 | |
| 686 | 12:19:37h | 4.46 | M50 | 561st M · 47th M50 | |
| 687 | 12:19:38h | 4.46 | M35 | 562nd M · 100th M35 | |
| 688 | 12:19:48h | 4.46 | WU23 | 126th F · 2nd WU23 | |
| 689 | 12:20:21h | 4.46 | M40 | 563rd M · 113th M40 | |
| 690 | 12:20:29h | 4.46 | M35 | 564th M · 101st M35 | |
| 691 | 12:20:46h | 4.46 | M45 | 565th M · 83rd M45 | |
| 692 | Cherwell Runners & Jog... | 12:21:17h | 4.45 | M40 | 566th M · 114th M40 |
| 693 | 12:21:29h | 4.45 | M45 | 567th M · 84th M45 | |
| 694 | Clayton Le Moors Harriers | 12:21:30h | 4.45 | M40 | 568th M · 115th M40 |
| 695 | Kinetic Sports | 12:21:54h | 4.45 | M23 | 569th M · 181st M23 |
| 696 | 12:22:01h | 4.45 | W50 | 127th F · 6th W50 | |
| 697 | 12:22:16h | 4.45 | M35 | 570th M · 102nd M35 | |
| 698 | 12:22:25h | 4.45 | M23 | 571st M · 182nd M23 | |
| 699 | 12:22:40h | 4.44 | W35 | 128th F · 22nd W35 | |
| 700 | 12:22:52h | 4.44 | M35 | 572nd M · 103rd M35 |
- 651534th M · 106th M40Time12:08:42hPace4.53Cat.M40
- 652Mikkeller RC Aarhus535th M · 78th M45Time12:09:35hPace4.52Cat.M45
- 652535th M · 176th M23Time12:09:35hPace4.52Cat.M23
- 654537th M · 107th M40Time12:09:43hPace4.52Cat.M40
- 655118th F · 23rd W40Time12:10:01hPace4.52Cat.W40
- 656119th F · 51st W23Time12:10:11hPace4.52Cat.W23
- 657120th F · 24th W40Time12:10:27hPace4.52Cat.W40
- 658Team Paris Marathon / C&C121st F · 1st W65Time12:10:28hPace4.52Cat.W65
- 659538th M · 108th M40Time12:10:49hPace4.51Cat.M40
- 660539th M · 22nd M55Time12:10:59hPace4.51Cat.M55
- 661540th M · 98th M35Time12:11:34hPace4.51Cat.M35
- 662122nd F · 21st W35Time12:12:42hPace4.50Cat.W35
- 663541st M · 6th MU23Time12:13:06hPace4.50Cat.MU23
- 664542nd M · 9th M60Time12:13:07hPace4.50Cat.M60
- 665543rd M · 79th M45Time12:13:13hPace4.50Cat.M45
- 666544th M · 23rd M55Time12:13:14hPace4.50Cat.M55
- 667545th M · 80th M45Time12:13:15hPace4.50Cat.M45
- 668Hyde Park Harriers546th M · 177th M23Time12:13:16hPace4.50Cat.M23
- 669547th M · 178th M23Time12:13:48hPace4.50Cat.M23
- 670548th M · 81st M45Time12:14:55hPace4.49Cat.M45
- 671123rd F · 25th W40Time12:15:27hPace4.49Cat.W40
- 672Cobra Running & Triath...549th M · 109th M40Time12:15:36hPace4.49Cat.M40
- 673TKO Sport550th M · 44th M50Time12:15:57hPace4.48Cat.M50
- 674551st M · 179th M23Time12:16:40hPace4.48Cat.M23
- 675552nd M · 45th M50Time12:17:16hPace4.48Cat.M50
- 676553rd M · 46th M50Time12:17:34hPace4.47Cat.M50
- 677554th M · 99th M35Time12:17:50hPace4.47Cat.M35
- 678SVTR555th M · 82nd M45Time12:17:57hPace4.47Cat.M45
- 679NRG Endurance124th F · 26th W40Time12:17:59hPace4.47Cat.W40
- 680556th M · 110th M40Time12:18:09hPace4.47Cat.M40
- 681557th M · 111th M40Time12:18:11hPace4.47Cat.M40
- 682558th M · 112th M40Time12:18:20hPace4.47Cat.M40
- 683Westbury Running Group559th M · 24th M55Time12:18:43hPace4.47Cat.M55
- 684560th M · 180th M23Time12:18:52hPace4.47Cat.M23
- 685125th F · 5th W55Time12:18:53hPace4.47Cat.W55
- 686561st M · 47th M50Time12:19:37hPace4.46Cat.M50
- 687562nd M · 100th M35Time12:19:38hPace4.46Cat.M35
- 688126th F · 2nd WU23Time12:19:48hPace4.46Cat.WU23
- 689563rd M · 113th M40Time12:20:21hPace4.46Cat.M40
- 690564th M · 101st M35Time12:20:29hPace4.46Cat.M35
- 691565th M · 83rd M45Time12:20:46hPace4.46Cat.M45
- 692Cherwell Runners & Jog...566th M · 114th M40Time12:21:17hPace4.45Cat.M40
- 693567th M · 84th M45Time12:21:29hPace4.45Cat.M45
- 694Clayton Le Moors Harriers568th M · 115th M40Time12:21:30hPace4.45Cat.M40
- 695Kinetic Sports569th M · 181st M23Time12:21:54hPace4.45Cat.M23
- 696127th F · 6th W50Time12:22:01hPace4.45Cat.W50
- 697570th M · 102nd M35Time12:22:16hPace4.45Cat.M35
- 698571st M · 182nd M23Time12:22:25hPace4.45Cat.M23
- 699128th F · 22nd W35Time12:22:40hPace4.44Cat.W35
- 700572nd M · 103rd M35Time12:22:52hPace4.44Cat.M35
Showing ranks 651–700 of 965